sensor_id;sensor_type;location;lat;lon;timestamp;temperature;humidity
76878;DHT22;65843;50.692;12.844;2024-01-30T00:00:30;20.30;51.50
76878;DHT22;65843;50.692;12.844;2024-01-30T00:01:31;20.30;51.60
76878;DHT22;65843;50.692;12.844;2024-01-30T00:02:32;20.30;51.50
76878;DHT22;65843;50.692;12.844;2024-01-30T00:03:33;20.30;51.40
76878;DHT22;65843;50.692;12.844;2024-01-30T00:04:34;20.30;51.30
76878;DHT22;65843;50.692;12.844;2024-01-30T00:05:35;20.30;51.70
76878;DHT22;65843;50.692;12.844;2024-01-30T00:06:36;20.30;51.60
76878;DHT22;65843;50.692;12.844;2024-01-30T00:07:36;20.30;51.60
76878;DHT22;65843;50.692;12.844;2024-01-30T00:08:37;20.30;51.60
76878;DHT22;65843;50.692;12.844;2024-01-30T00:09:38;20.30;51.60
76878;DHT22;65843;50.692;12.844;2024-01-30T00:10:42;20.30;51.50
76878;DHT22;65843;50.692;12.844;2024-01-30T00:11:43;20.30;51.60
76878;DHT22;65843;50.692;12.844;2024-01-30T00:12:44;20.30;51.70
76878;DHT22;65843;50.692;12.844;2024-01-30T00:13:45;20.30;52.10
76878;DHT22;65843;50.692;12.844;2024-01-30T00:14:46;20.30;51.60
76878;DHT22;65843;50.692;12.844;2024-01-30T00:15:46;20.30;51.60
76878;DHT22;65843;50.692;12.844;2024-01-30T00:16:47;20.30;51.90
76878;DHT22;65843;50.692;12.844;2024-01-30T00:17:48;20.30;51.50
76878;DHT22;65843;50.692;12.844;2024-01-30T00:18:52;20.30;51.50
76878;DHT22;65843;50.692;12.844;2024-01-30T00:19:53;20.30;51.70
76878;DHT22;65843;50.692;12.844;2024-01-30T00:20:54;20.30;51.60
76878;DHT22;65843;50.692;12.844;2024-01-30T00:21:55;20.30;51.90
76878;DHT22;65843;50.692;12.844;2024-01-30T00:22:56;20.30;52.10
76878;DHT22;65843;50.692;12.844;2024-01-30T00:23:57;20.30;52.30
76878;DHT22;65843;50.692;12.844;2024-01-30T00:24:58;20.30;52.10
76878;DHT22;65843;50.692;12.844;2024-01-30T00:25:58;20.30;52.20
76878;DHT22;65843;50.692;12.844;2024-01-30T00:26:59;20.30;52.00
76878;DHT22;65843;50.692;12.844;2024-01-30T00:28:00;20.30;52.20
76878;DHT22;65843;50.692;12.844;2024-01-30T00:29:01;20.30;52.20
76878;DHT22;65843;50.692;12.844;2024-01-30T00:30:03;20.30;52.20
76878;DHT22;65843;50.692;12.844;2024-01-30T00:31:04;20.30;52.10
76878;DHT22;65843;50.692;12.844;2024-01-30T00:32:05;20.30;52.30
76878;DHT22;65843;50.692;12.844;2024-01-30T00:33:06;20.30;51.70
76878;DHT22;65843;50.692;12.844;2024-01-30T00:34:07;20.30;51.80
76878;DHT22;65843;50.692;12.844;2024-01-30T00:35:07;20.30;52.00
76878;DHT22;65843;50.692;12.844;2024-01-30T00:36:10;20.30;52.20
76878;DHT22;65843;50.692;12.844;2024-01-30T00:37:11;20.30;51.80
76878;DHT22;65843;50.692;12.844;2024-01-30T00:38:12;20.30;52.00
76878;DHT22;65843;50.692;12.844;2024-01-30T00:39:13;20.30;51.90
76878;DHT22;65843;50.692;12.844;2024-01-30T00:40:16;20.30;52.00
76878;DHT22;65843;50.692;12.844;2024-01-30T00:41:18;20.30;51.90
76878;DHT22;65843;50.692;12.844;2024-01-30T00:42:20;20.30;52.10
76878;DHT22;65843;50.692;12.844;2024-01-30T00:43:21;20.30;52.40
76878;DHT22;65843;50.692;12.844;2024-01-30T00:44:22;20.30;52.10
76878;DHT22;65843;50.692;12.844;2024-01-30T00:45:23;20.30;52.20
76878;DHT22;65843;50.692;12.844;2024-01-30T00:46:24;20.30;52.10
76878;DHT22;65843;50.692;12.844;2024-01-30T00:47:25;20.30;52.00
76878;DHT22;65843;50.692;12.844;2024-01-30T00:48:26;20.30;52.20
76878;DHT22;65843;50.692;12.844;2024-01-30T00:49:27;20.30;52.40
76878;DHT22;65843;50.692;12.844;2024-01-30T00:50:27;20.30;52.30
76878;DHT22;65843;50.692;12.844;2024-01-30T00:51:28;20.30;52.20
76878;DHT22;65843;50.692;12.844;2024-01-30T00:52:30;20.30;52.00
76878;DHT22;65843;50.692;12.844;2024-01-30T00:53:31;20.40;52.10
76878;DHT22;65843;50.692;12.844;2024-01-30T00:54:32;20.40;52.00
76878;DHT22;65843;50.692;12.844;2024-01-30T00:55:32;20.40;52.20
76878;DHT22;65843;50.692;12.844;2024-01-30T00:56:33;20.40;52.00
76878;DHT22;65843;50.692;12.844;2024-01-30T00:57:34;20.50;52.20
76878;DHT22;65843;50.692;12.844;2024-01-30T00:58:35;20.50;52.10
76878;DHT22;65843;50.692;12.844;2024-01-30T00:59:36;20.50;52.70
76878;DHT22;65843;50.692;12.844;2024-01-30T01:00:37;20.50;52.10
76878;DHT22;65843;50.692;12.844;2024-01-30T01:01:38;20.50;52.20
76878;DHT22;65843;50.692;12.844;2024-01-30T01:02:39;20.50;52.00
76878;DHT22;65843;50.692;12.844;2024-01-30T01:03:40;20.50;51.70
76878;DHT22;65843;50.692;12.844;2024-01-30T01:04:41;20.50;51.70
76878;DHT22;65843;50.692;12.844;2024-01-30T01:05:42;20.50;51.50
76878;DHT22;65843;50.692;12.844;2024-01-30T01:06:43;20.50;51.40
76878;DHT22;65843;50.692;12.844;2024-01-30T01:07:44;20.40;51.30
76878;DHT22;65843;50.692;12.844;2024-01-30T01:08:48;20.50;51.20
76878;DHT22;65843;50.692;12.844;2024-01-30T01:09:48;20.40;51.80
76878;DHT22;65843;50.692;12.844;2024-01-30T01:10:49;20.40;50.90
76878;DHT22;65843;50.692;12.844;2024-01-30T01:11:50;20.50;51.40
76878;DHT22;65843;50.692;12.844;2024-01-30T01:12:51;20.40;50.90
76878;DHT22;65843;50.692;12.844;2024-01-30T01:13:52;20.50;51.60
76878;DHT22;65843;50.692;12.844;2024-01-30T01:14:53;20.40;51.60
76878;DHT22;65843;50.692;12.844;2024-01-30T01:15:54;20.50;51.90
76878;DHT22;65843;50.692;12.844;2024-01-30T01:16:55;20.50;52.00
76878;DHT22;65843;50.692;12.844;2024-01-30T01:17:56;20.50;51.80
76878;DHT22;65843;50.692;12.844;2024-01-30T01:18:57;20.50;51.70
76878;DHT22;65843;50.692;12.844;2024-01-30T01:19:58;20.50;52.30
76878;DHT22;65843;50.692;12.844;2024-01-30T01:20:59;20.50;52.20
76878;DHT22;65843;50.692;12.844;2024-01-30T01:22:00;20.50;52.20
76878;DHT22;65843;50.692;12.844;2024-01-30T01:23:01;20.50;52.20
76878;DHT22;65843;50.692;12.844;2024-01-30T01:24:02;20.50;52.30
76878;DHT22;65843;50.692;12.844;2024-01-30T01:25:03;20.50;52.50
76878;DHT22;65843;50.692;12.844;2024-01-30T01:26:04;20.50;52.30
76878;DHT22;65843;50.692;12.844;2024-01-30T01:27:06;20.50;52.20
76878;DHT22;65843;50.692;12.844;2024-01-30T01:28:07;20.50;52.50
76878;DHT22;65843;50.692;12.844;2024-01-30T01:29:08;20.50;52.50
76878;DHT22;65843;50.692;12.844;2024-01-30T01:30:12;20.50;52.50
76878;DHT22;65843;50.692;12.844;2024-01-30T01:31:19;20.50;52.70
76878;DHT22;65843;50.692;12.844;2024-01-30T01:32:23;20.50;52.70
76878;DHT22;65843;50.692;12.844;2024-01-30T01:33:24;20.50;52.80
76878;DHT22;65843;50.692;12.844;2024-01-30T01:34:25;20.50;52.80
76878;DHT22;65843;50.692;12.844;2024-01-30T01:35:26;20.50;52.70
76878;DHT22;65843;50.692;12.844;2024-01-30T01:36:27;20.50;52.90
76878;DHT22;65843;50.692;12.844;2024-01-30T01:37:28;20.50;52.70
76878;DHT22;65843;50.692;12.844;2024-01-30T01:38:28;20.50;52.70
76878;DHT22;65843;50.692;12.844;2024-01-30T01:39:29;20.50;52.80
76878;DHT22;65843;50.692;12.844;2024-01-30T01:40:30;20.50;52.60
76878;DHT22;65843;50.692;12.844;2024-01-30T01:41:32;20.50;52.60
76878;DHT22;65843;50.692;12.844;2024-01-30T01:42:32;20.40;52.20
76878;DHT22;65843;50.692;12.844;2024-01-30T01:43:33;20.40;52.60
76878;DHT22;65843;50.692;12.844;2024-01-30T01:44:34;20.40;52.80
76878;DHT22;65843;50.692;12.844;2024-01-30T01:45:35;20.40;52.50
76878;DHT22;65843;50.692;12.844;2024-01-30T01:46:37;20.50;53.00
76878;DHT22;65843;50.692;12.844;2024-01-30T01:47:37;20.40;53.20
76878;DHT22;65843;50.692;12.844;2024-01-30T01:48:38;20.50;52.80
76878;DHT22;65843;50.692;12.844;2024-01-30T01:49:40;20.50;52.50
76878;DHT22;65843;50.692;12.844;2024-01-30T01:50:41;20.50;52.80
76878;DHT22;65843;50.692;12.844;2024-01-30T01:51:43;20.50;52.80
76878;DHT22;65843;50.692;12.844;2024-01-30T01:52:48;20.50;52.90
76878;DHT22;65843;50.692;12.844;2024-01-30T01:53:49;20.50;52.60
76878;DHT22;65843;50.692;12.844;2024-01-30T01:54:50;20.50;52.00
76878;DHT22;65843;50.692;12.844;2024-01-30T01:55:51;20.50;52.60
76878;DHT22;65843;50.692;12.844;2024-01-30T01:56:53;20.50;52.70
76878;DHT22;65843;50.692;12.844;2024-01-30T01:57:54;20.50;52.70
76878;DHT22;65843;50.692;12.844;2024-01-30T01:58:55;20.50;53.10
76878;DHT22;65843;50.692;12.844;2024-01-30T01:59:58;20.50;52.70
76878;DHT22;65843;50.692;12.844;2024-01-30T02:00:59;20.50;52.60
76878;DHT22;65843;50.692;12.844;2024-01-30T02:02:00;20.50;52.50
76878;DHT22;65843;50.692;12.844;2024-01-30T02:03:02;20.50;52.70
76878;DHT22;65843;50.692;12.844;2024-01-30T02:04:04;20.50;53.20
76878;DHT22;65843;50.692;12.844;2024-01-30T02:05:05;20.50;53.00
76878;DHT22;65843;50.692;12.844;2024-01-30T02:06:06;20.50;53.00
76878;DHT22;65843;50.692;12.844;2024-01-30T02:07:07;20.50;53.10
76878;DHT22;65843;50.692;12.844;2024-01-30T02:08:08;20.50;52.90
76878;DHT22;65843;50.692;12.844;2024-01-30T02:09:09;20.50;52.80
76878;DHT22;65843;50.692;12.844;2024-01-30T02:10:10;20.50;53.00
76878;DHT22;65843;50.692;12.844;2024-01-30T02:11:11;20.50;52.70
76878;DHT22;65843;50.692;12.844;2024-01-30T02:12:12;20.50;53.00
76878;DHT22;65843;50.692;12.844;2024-01-30T02:13:13;20.50;53.00
76878;DHT22;65843;50.692;12.844;2024-01-30T02:14:14;20.50;53.10
76878;DHT22;65843;50.692;12.844;2024-01-30T02:15:14;20.50;53.30
76878;DHT22;65843;50.692;12.844;2024-01-30T02:16:15;20.50;53.20
76878;DHT22;65843;50.692;12.844;2024-01-30T02:17:17;20.50;52.90
76878;DHT22;65843;50.692;12.844;2024-01-30T02:18:19;20.50;53.00
76878;DHT22;65843;50.692;12.844;2024-01-30T02:19:20;20.50;53.20
76878;DHT22;65843;50.692;12.844;2024-01-30T02:20:21;20.50;52.90
76878;DHT22;65843;50.692;12.844;2024-01-30T02:21:22;20.50;53.10
76878;DHT22;65843;50.692;12.844;2024-01-30T02:22:23;20.50;52.90
76878;DHT22;65843;50.692;12.844;2024-01-30T02:23:24;20.50;53.00
76878;DHT22;65843;50.692;12.844;2024-01-30T02:24:26;20.50;53.30
76878;DHT22;65843;50.692;12.844;2024-01-30T02:25:33;20.50;53.10
76878;DHT22;65843;50.692;12.844;2024-01-30T02:26:34;20.50;53.00
76878;DHT22;65843;50.692;12.844;2024-01-30T02:27:35;20.50;53.00
76878;DHT22;65843;50.692;12.844;2024-01-30T02:28:36;20.50;53.10
76878;DHT22;65843;50.692;12.844;2024-01-30T02:29:37;20.50;53.00
76878;DHT22;65843;50.692;12.844;2024-01-30T02:30:42;20.50;53.40
76878;DHT22;65843;50.692;12.844;2024-01-30T02:31:43;20.50;53.30
76878;DHT22;65843;50.692;12.844;2024-01-30T02:32:46;20.50;53.20
76878;DHT22;65843;50.692;12.844;2024-01-30T02:33:47;20.50;53.20
76878;DHT22;65843;50.692;12.844;2024-01-30T02:34:48;20.50;53.50
76878;DHT22;65843;50.692;12.844;2024-01-30T02:35:49;20.50;53.40
76878;DHT22;65843;50.692;12.844;2024-01-30T02:36:49;20.50;53.30
76878;DHT22;65843;50.692;12.844;2024-01-30T02:37:50;20.50;53.40
76878;DHT22;65843;50.692;12.844;2024-01-30T02:38:51;20.50;53.40
76878;DHT22;65843;50.692;12.844;2024-01-30T02:39:52;20.50;53.30
76878;DHT22;65843;50.692;12.844;2024-01-30T02:40:53;20.50;53.40
76878;DHT22;65843;50.692;12.844;2024-01-30T02:41:54;20.50;53.50
76878;DHT22;65843;50.692;12.844;2024-01-30T02:42:55;20.50;53.70
76878;DHT22;65843;50.692;12.844;2024-01-30T02:43:56;20.50;53.20
76878;DHT22;65843;50.692;12.844;2024-01-30T02:44:57;20.50;54.00
76878;DHT22;65843;50.692;12.844;2024-01-30T02:45:58;20.50;54.00
76878;DHT22;65843;50.692;12.844;2024-01-30T02:47:01;20.50;54.00
76878;DHT22;65843;50.692;12.844;2024-01-30T02:48:02;20.50;53.90
76878;DHT22;65843;50.692;12.844;2024-01-30T02:49:03;20.50;54.00
76878;DHT22;65843;50.692;12.844;2024-01-30T02:50:04;20.50;53.90
76878;DHT22;65843;50.692;12.844;2024-01-30T02:51:05;20.50;54.00
76878;DHT22;65843;50.692;12.844;2024-01-30T02:52:06;20.50;53.80
76878;DHT22;65843;50.692;12.844;2024-01-30T02:53:07;20.50;53.90
76878;DHT22;65843;50.692;12.844;2024-01-30T02:54:08;20.50;54.20
76878;DHT22;65843;50.692;12.844;2024-01-30T02:55:08;20.50;54.10
76878;DHT22;65843;50.692;12.844;2024-01-30T02:56:09;20.50;54.20
76878;DHT22;65843;50.692;12.844;2024-01-30T02:57:10;20.50;54.10
76878;DHT22;65843;50.692;12.844;2024-01-30T02:58:11;20.50;53.80
76878;DHT22;65843;50.692;12.844;2024-01-30T02:59:12;20.50;53.90
76878;DHT22;65843;50.692;12.844;2024-01-30T03:00:13;20.50;53.90
76878;DHT22;65843;50.692;12.844;2024-01-30T03:01:14;20.50;53.80
76878;DHT22;65843;50.692;12.844;2024-01-30T03:02:15;20.50;54.00
76878;DHT22;65843;50.692;12.844;2024-01-30T03:03:16;20.50;53.90
76878;DHT22;65843;50.692;12.844;2024-01-30T03:04:17;20.50;53.90
76878;DHT22;65843;50.692;12.844;2024-01-30T03:05:18;20.50;53.90
76878;DHT22;65843;50.692;12.844;2024-01-30T03:06:19;20.50;54.00
76878;DHT22;65843;50.692;12.844;2024-01-30T03:07:20;20.50;53.60
76878;DHT22;65843;50.692;12.844;2024-01-30T03:08:21;20.50;53.60
76878;DHT22;65843;50.692;12.844;2024-01-30T03:09:22;20.50;53.50
76878;DHT22;65843;50.692;12.844;2024-01-30T03:10:23;20.50;53.70
76878;DHT22;65843;50.692;12.844;2024-01-30T03:11:24;20.50;53.50
76878;DHT22;65843;50.692;12.844;2024-01-30T03:12:25;20.50;53.50
76878;DHT22;65843;50.692;12.844;2024-01-30T03:13:25;20.50;53.60
76878;DHT22;65843;50.692;12.844;2024-01-30T03:14:26;20.50;53.90
76878;DHT22;65843;50.692;12.844;2024-01-30T03:15:27;20.50;54.00
76878;DHT22;65843;50.692;12.844;2024-01-30T03:16:28;20.50;54.00
76878;DHT22;65843;50.692;12.844;2024-01-30T03:17:29;20.50;53.60
76878;DHT22;65843;50.692;12.844;2024-01-30T03:18:30;20.50;54.00
76878;DHT22;65843;50.692;12.844;2024-01-30T03:19:30;20.50;53.60
76878;DHT22;65843;50.692;12.844;2024-01-30T03:20:31;20.50;53.90
76878;DHT22;65843;50.692;12.844;2024-01-30T03:21:32;20.50;54.10
76878;DHT22;65843;50.692;12.844;2024-01-30T03:22:33;20.50;53.70
76878;DHT22;65843;50.692;12.844;2024-01-30T03:23:34;20.50;53.90
76878;DHT22;65843;50.692;12.844;2024-01-30T03:24:35;20.50;54.10
76878;DHT22;65843;50.692;12.844;2024-01-30T03:25:36;20.50;53.60
76878;DHT22;65843;50.692;12.844;2024-01-30T03:26:36;20.50;53.70
76878;DHT22;65843;50.692;12.844;2024-01-30T03:27:37;20.50;53.70
76878;DHT22;65843;50.692;12.844;2024-01-30T03:28:38;20.50;53.60
76878;DHT22;65843;50.692;12.844;2024-01-30T03:29:39;20.50;53.70
76878;DHT22;65843;50.692;12.844;2024-01-30T03:30:40;20.50;53.20
76878;DHT22;65843;50.692;12.844;2024-01-30T03:31:41;20.50;53.70
76878;DHT22;65843;50.692;12.844;2024-01-30T03:32:41;20.50;53.80
76878;DHT22;65843;50.692;12.844;2024-01-30T03:33:42;20.50;54.00
76878;DHT22;65843;50.692;12.844;2024-01-30T03:34:44;20.50;53.70
76878;DHT22;65843;50.692;12.844;2024-01-30T03:35:45;20.50;53.70
76878;DHT22;65843;50.692;12.844;2024-01-30T03:36:45;20.50;53.60
76878;DHT22;65843;50.692;12.844;2024-01-30T03:37:46;20.50;53.60
76878;DHT22;65843;50.692;12.844;2024-01-30T03:38:47;20.50;53.80
76878;DHT22;65843;50.692;12.844;2024-01-30T03:39:48;20.50;54.20
76878;DHT22;65843;50.692;12.844;2024-01-30T03:40:49;20.50;53.60
76878;DHT22;65843;50.692;12.844;2024-01-30T03:41:50;20.50;53.90
76878;DHT22;65843;50.692;12.844;2024-01-30T03:42:51;20.50;54.10
76878;DHT22;65843;50.692;12.844;2024-01-30T03:43:51;20.50;53.80
76878;DHT22;65843;50.692;12.844;2024-01-30T03:44:52;20.50;53.60
76878;DHT22;65843;50.692;12.844;2024-01-30T03:45:54;20.50;53.70
76878;DHT22;65843;50.692;12.844;2024-01-30T03:46:55;20.50;54.00
76878;DHT22;65843;50.692;12.844;2024-01-30T03:47:55;20.50;54.00
76878;DHT22;65843;50.692;12.844;2024-01-30T03:48:56;20.50;53.90
76878;DHT22;65843;50.692;12.844;2024-01-30T03:49:57;20.50;53.70
76878;DHT22;65843;50.692;12.844;2024-01-30T03:50:58;20.50;53.30
76878;DHT22;65843;50.692;12.844;2024-01-30T03:51:59;20.50;53.90
76878;DHT22;65843;50.692;12.844;2024-01-30T03:53:00;20.50;53.70
76878;DHT22;65843;50.692;12.844;2024-01-30T03:54:01;20.50;53.90
76878;DHT22;65843;50.692;12.844;2024-01-30T03:55:02;20.50;53.70
76878;DHT22;65843;50.692;12.844;2024-01-30T03:56:02;20.50;53.50
76878;DHT22;65843;50.692;12.844;2024-01-30T03:57:03;20.50;53.90
76878;DHT22;65843;50.692;12.844;2024-01-30T03:58:04;20.50;53.30
76878;DHT22;65843;50.692;12.844;2024-01-30T03:59:05;20.50;53.60
76878;DHT22;65843;50.692;12.844;2024-01-30T04:00:06;20.50;53.50
76878;DHT22;65843;50.692;12.844;2024-01-30T04:01:07;20.50;53.80
76878;DHT22;65843;50.692;12.844;2024-01-30T04:02:09;20.50;53.60
76878;DHT22;65843;50.692;12.844;2024-01-30T04:03:10;20.50;53.80
76878;DHT22;65843;50.692;12.844;2024-01-30T04:04:11;20.50;54.00
76878;DHT22;65843;50.692;12.844;2024-01-30T04:05:12;20.50;53.90
76878;DHT22;65843;50.692;12.844;2024-01-30T04:06:13;20.50;53.60
76878;DHT22;65843;50.692;12.844;2024-01-30T04:07:14;20.50;53.70
76878;DHT22;65843;50.692;12.844;2024-01-30T04:08:15;20.50;53.80
76878;DHT22;65843;50.692;12.844;2024-01-30T04:09:15;20.50;54.00
76878;DHT22;65843;50.692;12.844;2024-01-30T04:10:16;20.50;53.80
76878;DHT22;65843;50.692;12.844;2024-01-30T04:11:20;20.50;53.90
76878;DHT22;65843;50.692;12.844;2024-01-30T04:12:21;20.50;54.10
76878;DHT22;65843;50.692;12.844;2024-01-30T04:13:22;20.50;53.60
76878;DHT22;65843;50.692;12.844;2024-01-30T04:14:22;20.50;54.10
76878;DHT22;65843;50.692;12.844;2024-01-30T04:15:23;20.50;53.60
76878;DHT22;65843;50.692;12.844;2024-01-30T04:16:24;20.50;54.00
76878;DHT22;65843;50.692;12.844;2024-01-30T04:17:25;20.50;53.60
76878;DHT22;65843;50.692;12.844;2024-01-30T04:18:26;20.50;54.50
76878;DHT22;65843;50.692;12.844;2024-01-30T04:19:27;20.50;53.50
76878;DHT22;65843;50.692;12.844;2024-01-30T04:20:28;20.50;54.20
76878;DHT22;65843;50.692;12.844;2024-01-30T04:21:29;20.50;54.00
76878;DHT22;65843;50.692;12.844;2024-01-30T04:22:30;20.50;53.70
76878;DHT22;65843;50.692;12.844;2024-01-30T04:23:31;20.50;53.60
76878;DHT22;65843;50.692;12.844;2024-01-30T04:24:32;20.50;53.80
76878;DHT22;65843;50.692;12.844;2024-01-30T04:25:33;20.50;54.10
76878;DHT22;65843;50.692;12.844;2024-01-30T04:26:34;20.50;54.30
76878;DHT22;65843;50.692;12.844;2024-01-30T04:27:35;20.50;53.70
76878;DHT22;65843;50.692;12.844;2024-01-30T04:28:35;20.50;53.80
76878;DHT22;65843;50.692;12.844;2024-01-30T04:29:36;20.50;53.70
76878;DHT22;65843;50.692;12.844;2024-01-30T04:30:37;20.50;53.90
76878;DHT22;65843;50.692;12.844;2024-01-30T04:31:38;20.50;53.70
76878;DHT22;65843;50.692;12.844;2024-01-30T04:32:39;20.50;53.40
76878;DHT22;65843;50.692;12.844;2024-01-30T04:33:40;20.50;53.40
76878;DHT22;65843;50.692;12.844;2024-01-30T04:34:41;20.50;53.10
76878;DHT22;65843;50.692;12.844;2024-01-30T04:35:42;20.50;53.30
76878;DHT22;65843;50.692;12.844;2024-01-30T04:36:44;20.50;53.30
76878;DHT22;65843;50.692;12.844;2024-01-30T04:37:45;20.50;53.20
76878;DHT22;65843;50.692;12.844;2024-01-30T04:38:46;20.50;53.20
76878;DHT22;65843;50.692;12.844;2024-01-30T04:39:47;20.40;53.10
76878;DHT22;65843;50.692;12.844;2024-01-30T04:40:48;20.50;53.00
76878;DHT22;65843;50.692;12.844;2024-01-30T04:41:49;20.40;52.90
76878;DHT22;65843;50.692;12.844;2024-01-30T04:42:50;20.40;53.00
76878;DHT22;65843;50.692;12.844;2024-01-30T04:43:51;20.40;52.90
76878;DHT22;65843;50.692;12.844;2024-01-30T04:44:52;20.40;52.70
76878;DHT22;65843;50.692;12.844;2024-01-30T04:45:52;20.40;52.60
76878;DHT22;65843;50.692;12.844;2024-01-30T04:46:53;20.40;52.80
76878;DHT22;65843;50.692;12.844;2024-01-30T04:47:54;20.40;52.80
76878;DHT22;65843;50.692;12.844;2024-01-30T04:48:55;20.40;52.80
76878;DHT22;65843;50.692;12.844;2024-01-30T04:49:56;20.40;52.70
76878;DHT22;65843;50.692;12.844;2024-01-30T04:50:57;20.40;52.60
76878;DHT22;65843;50.692;12.844;2024-01-30T04:51:58;20.40;52.70
76878;DHT22;65843;50.692;12.844;2024-01-30T04:52:59;20.40;52.70
76878;DHT22;65843;50.692;12.844;2024-01-30T04:54:00;20.40;53.00
76878;DHT22;65843;50.692;12.844;2024-01-30T04:55:01;20.30;52.50
76878;DHT22;65843;50.692;12.844;2024-01-30T04:56:02;20.40;52.50
76878;DHT22;65843;50.692;12.844;2024-01-30T04:57:03;20.40;52.50
76878;DHT22;65843;50.692;12.844;2024-01-30T04:58:04;20.40;52.50
76878;DHT22;65843;50.692;12.844;2024-01-30T04:59:05;20.30;52.60
76878;DHT22;65843;50.692;12.844;2024-01-30T05:00:06;20.40;52.50
76878;DHT22;65843;50.692;12.844;2024-01-30T05:01:07;20.40;52.40
76878;DHT22;65843;50.692;12.844;2024-01-30T05:02:08;20.30;52.50
76878;DHT22;65843;50.692;12.844;2024-01-30T05:03:09;20.40;52.60
76878;DHT22;65843;50.692;12.844;2024-01-30T05:04:10;20.30;52.70
76878;DHT22;65843;50.692;12.844;2024-01-30T05:05:11;20.30;52.70
76878;DHT22;65843;50.692;12.844;2024-01-30T05:06:12;20.30;52.70
76878;DHT22;65843;50.692;12.844;2024-01-30T05:07:13;20.40;52.60
76878;DHT22;65843;50.692;12.844;2024-01-30T05:08:14;20.30;52.40
76878;DHT22;65843;50.692;12.844;2024-01-30T05:09:15;20.30;52.30
76878;DHT22;65843;50.692;12.844;2024-01-30T05:10:16;20.30;52.20
76878;DHT22;65843;50.692;12.844;2024-01-30T05:11:16;20.30;53.30
76878;DHT22;65843;50.692;12.844;2024-01-30T05:12:17;20.30;52.40
76878;DHT22;65843;50.692;12.844;2024-01-30T05:13:18;20.30;52.40
76878;DHT22;65843;50.692;12.844;2024-01-30T05:14:19;20.30;52.50
76878;DHT22;65843;50.692;12.844;2024-01-30T05:15:20;20.30;52.30
76878;DHT22;65843;50.692;12.844;2024-01-30T05:16:21;20.30;52.20
76878;DHT22;65843;50.692;12.844;2024-01-30T05:17:22;20.30;53.20
76878;DHT22;65843;50.692;12.844;2024-01-30T05:18:23;20.40;52.70
76878;DHT22;65843;50.692;12.844;2024-01-30T05:19:24;20.40;52.20
76878;DHT22;65843;50.692;12.844;2024-01-30T05:20:24;20.50;52.00
76878;DHT22;65843;50.692;12.844;2024-01-30T05:21:28;20.50;51.80
76878;DHT22;65843;50.692;12.844;2024-01-30T05:22:29;20.50;49.60
76878;DHT22;65843;50.692;12.844;2024-01-30T05:23:30;20.50;49.80
76878;DHT22;65843;50.692;12.844;2024-01-30T05:24:32;20.60;49.00
76878;DHT22;65843;50.692;12.844;2024-01-30T05:25:33;20.60;48.10
76878;DHT22;65843;50.692;12.844;2024-01-30T05:26:34;20.50;47.90
76878;DHT22;65843;50.692;12.844;2024-01-30T05:27:35;20.50;46.90
76878;DHT22;65843;50.692;12.844;2024-01-30T05:28:36;20.50;47.00
76878;DHT22;65843;50.692;12.844;2024-01-30T05:29:37;20.50;46.60
76878;DHT22;65843;50.692;12.844;2024-01-30T05:30:38;20.40;46.10
76878;DHT22;65843;50.692;12.844;2024-01-30T05:31:38;20.40;45.10
76878;DHT22;65843;50.692;12.844;2024-01-30T05:32:39;20.30;44.30
76878;DHT22;65843;50.692;12.844;2024-01-30T05:33:40;20.30;44.10
76878;DHT22;65843;50.692;12.844;2024-01-30T05:34:41;20.30;44.30
76878;DHT22;65843;50.692;12.844;2024-01-30T05:35:42;20.20;44.00
76878;DHT22;65843;50.692;12.844;2024-01-30T05:36:43;20.10;44.50
76878;DHT22;65843;50.692;12.844;2024-01-30T05:37:44;20.10;43.10
76878;DHT22;65843;50.692;12.844;2024-01-30T05:38:44;20.00;43.60
76878;DHT22;65843;50.692;12.844;2024-01-30T05:39:45;20.00;42.80
76878;DHT22;65843;50.692;12.844;2024-01-30T05:40:46;20.00;42.40
76878;DHT22;65843;50.692;12.844;2024-01-30T05:41:47;20.00;42.70
76878;DHT22;65843;50.692;12.844;2024-01-30T05:42:48;19.90;42.90
76878;DHT22;65843;50.692;12.844;2024-01-30T05:43:49;19.90;41.90
76878;DHT22;65843;50.692;12.844;2024-01-30T05:44:50;19.80;41.70
76878;DHT22;65843;50.692;12.844;2024-01-30T05:45:51;19.70;41.00
76878;DHT22;65843;50.692;12.844;2024-01-30T05:46:52;19.70;41.50
76878;DHT22;65843;50.692;12.844;2024-01-30T05:47:53;19.70;43.20
76878;DHT22;65843;50.692;12.844;2024-01-30T05:48:54;19.70;43.10
76878;DHT22;65843;50.692;12.844;2024-01-30T05:49:55;19.70;42.50
76878;DHT22;65843;50.692;12.844;2024-01-30T05:50:56;19.70;41.90
76878;DHT22;65843;50.692;12.844;2024-01-30T05:51:57;19.70;42.20
76878;DHT22;65843;50.692;12.844;2024-01-30T05:52:58;19.70;42.20
76878;DHT22;65843;50.692;12.844;2024-01-30T05:53:58;19.70;42.10
76878;DHT22;65843;50.692;12.844;2024-01-30T05:54:59;19.70;42.40
76878;DHT22;65843;50.692;12.844;2024-01-30T05:56:03;19.80;42.30
76878;DHT22;65843;50.692;12.844;2024-01-30T05:57:04;19.90;42.50
76878;DHT22;65843;50.692;12.844;2024-01-30T05:58:05;19.90;42.10
76878;DHT22;65843;50.692;12.844;2024-01-30T05:59:06;20.00;42.20
76878;DHT22;65843;50.692;12.844;2024-01-30T06:00:07;20.00;42.00
76878;DHT22;65843;50.692;12.844;2024-01-30T06:01:09;20.00;41.80
76878;DHT22;65843;50.692;12.844;2024-01-30T06:02:10;20.00;41.60
76878;DHT22;65843;50.692;12.844;2024-01-30T06:03:11;20.00;41.40
76878;DHT22;65843;50.692;12.844;2024-01-30T06:04:12;20.00;41.30
76878;DHT22;65843;50.692;12.844;2024-01-30T06:05:13;20.10;41.40
76878;DHT22;65843;50.692;12.844;2024-01-30T06:06:14;20.10;41.40
76878;DHT22;65843;50.692;12.844;2024-01-30T06:07:15;20.10;41.40
76878;DHT22;65843;50.692;12.844;2024-01-30T06:08:18;20.10;41.40
76878;DHT22;65843;50.692;12.844;2024-01-30T06:09:18;20.00;41.60
76878;DHT22;65843;50.692;12.844;2024-01-30T06:10:19;20.10;41.70
76878;DHT22;65843;50.692;12.844;2024-01-30T06:11:20;20.00;41.50
76878;DHT22;65843;50.692;12.844;2024-01-30T06:12:21;20.00;41.50
76878;DHT22;65843;50.692;12.844;2024-01-30T06:13:22;20.00;41.40
76878;DHT22;65843;50.692;12.844;2024-01-30T06:14:23;20.00;41.50
76878;DHT22;65843;50.692;12.844;2024-01-30T06:15:24;20.00;41.70
76878;DHT22;65843;50.692;12.844;2024-01-30T06:16:25;20.00;41.50
76878;DHT22;65843;50.692;12.844;2024-01-30T06:17:30;20.00;41.50
76878;DHT22;65843;50.692;12.844;2024-01-30T06:18:30;20.00;41.50
76878;DHT22;65843;50.692;12.844;2024-01-30T06:19:32;19.90;42.30